Time;durP1;ratioP1;P1;durP2;ratioP2;P2;SDS_P1;SDS_P2;PMS_P1;PMS_P2;Temp;Humidity;BMP_temperature;BMP_pressure;BME280_temperature;BME280_humidity;BME280_pressure;Samples;Min_cycle;Max_cycle;Signal;HPM_P1;HPM_P2
2023/09/06 00:01:05;;;;;;;7.55;2.30;;;23.70;77.80;;;;;;5048232;28;20033;-56
2023/09/06 00:03:32;;;;;;;3.47;2.10;;;23.70;77.90;;;;;;5066156;28;20102;-56
2023/09/06 00:05:59;;;;;;;4.85;2.45;;;23.60;77.90;;;;;;5048227;28;20049;-56
2023/09/06 00:08:25;;;;;;;4.95;2.47;;;23.60;77.90;;;;;;5031899;28;20100;-57
2023/09/06 00:10:51;;;;;;;4.53;2.38;;;23.60;78.10;;;;;;5048095;28;20055;-56
2023/09/06 00:13:17;;;;;;;3.47;2.20;;;23.50;78.00;;;;;;5066002;28;20473;-56
2023/09/06 00:15:43;;;;;;;3.28;1.95;;;23.50;78.10;;;;;;5029875;28;20048;-57
2023/09/06 00:18:09;;;;;;;3.30;2.15;;;23.50;78.20;;;;;;5048110;28;20068;-56
2023/09/06 00:20:35;;;;;;;7.35;1.95;;;23.50;78.30;;;;;;5047520;28;20058;-57
2023/09/06 00:23:02;;;;;;;2.63;2.20;;;23.50;78.30;;;;;;5051395;28;20037;-56
2023/09/06 00:25:29;;;;;;;3.00;2.47;;;23.40;78.30;;;;;;5051997;28;20031;-56
2023/09/06 00:27:55;;;;;;;2.67;2.25;;;23.40;78.30;;;;;;5052351;28;20029;-56
2023/09/06 00:30:21;;;;;;;5.40;2.15;;;23.40;78.40;;;;;;5089961;28;20044;-56
2023/09/06 00:32:47;;;;;;;3.20;2.28;;;23.40;78.30;;;;;;5089842;28;20067;-56
2023/09/06 00:35:14;;;;;;;4.28;2.40;;;23.40;78.30;;;;;;5070140;28;20056;-57
2023/09/06 00:37:40;;;;;;;5.72;2.70;;;23.40;78.40;;;;;;5089845;28;20033;-56
2023/09/06 00:40:18;;;;;;;4.95;2.33;;;23.30;78.40;;;;;;5089670;28;20416;-56
2023/09/06 00:42:48;;;;;;;4.78;2.65;;;23.30;78.50;;;;;;5044269;28;20102;-56
2023/09/06 00:45:13;;;;;;;3.63;2.63;;;23.30;78.50;;;;;;5051849;28;20033;-56
2023/09/06 00:47:41;;;;;;;5.82;2.28;;;23.30;78.50;;;;;;5069388;28;20033;-56
2023/09/06 00:50:07;;;;;;;2.20;2.00;;;23.30;78.50;;;;;;5061708;28;20040;-56
2023/09/06 00:52:33;;;;;;;8.77;2.22;;;23.30;78.50;;;;;;5038168;28;20047;-56
2023/09/06 00:55:01;;;;;;;5.07;2.72;;;23.30;78.60;;;;;;5071478;28;20437;-56
2023/09/06 00:57:29;;;;;;;6.40;2.53;;;23.20;78.60;;;;;;5070606;28;20028;-56
2023/09/06 00:59:54;;;;;;;2.92;2.38;;;23.20;78.60;;;;;;5071756;28;20059;-56
2023/09/06 01:02:20;;;;;;;5.22;2.20;;;23.20;78.60;;;;;;5054625;28;20119;-56
2023/09/06 01:04:46;;;;;;;5.22;2.13;;;23.20;78.80;;;;;;5053613;28;20067;-56
2023/09/06 01:07:11;;;;;;;3.53;2.45;;;23.10;78.70;;;;;;5071218;28;20037;-56
2023/09/06 01:09:37;;;;;;;5.00;2.75;;;23.10;78.70;;;;;;5071221;28;20043;-56
2023/09/06 01:12:02;;;;;;;3.75;2.10;;;23.10;78.80;;;;;;5069515;28;20540;-56
2023/09/06 01:14:28;;;;;;;2.72;2.17;;;23.00;78.80;;;;;;5071279;28;20059;-56
2023/09/06 01:16:55;;;;;;;5.13;2.20;;;23.10;78.90;;;;;;5089019;28;20055;-56
2023/09/06 01:19:24;;;;;;;4.13;2.35;;;23.00;78.80;;;;;;5053377;28;20036;-56
2023/09/06 01:22:07;;;;;;;3.75;2.10;;;23.00;78.80;;;;;;5054738;28;20032;-56
2023/09/06 01:24:32;;;;;;;3.97;2.50;;;23.00;78.90;;;;;;5070012;28;20082;-56
2023/09/06 01:26:58;;;;;;;3.30;2.20;;;22.90;78.80;;;;;;5037525;28;20051;-57
2023/09/06 01:29:23;;;;;;;4.22;2.50;;;22.90;78.80;;;;;;5054459;28;20056;-57
2023/09/06 01:31:49;;;;;;;2.65;2.13;;;22.90;78.90;;;;;;5070453;28;20033;-56
2023/09/06 01:34:14;;;;;;;4.35;2.50;;;22.90;78.90;;;;;;5087498;28;20029;-56
2023/09/06 01:36:40;;;;;;;4.65;2.22;;;22.90;79.00;;;;;;5070663;28;20033;-56
2023/09/06 01:39:06;;;;;;;4.97;2.30;;;22.90;79.00;;;;;;5052165;28;20032;-56
2023/09/06 01:41:32;;;;;;;4.70;2.60;;;22.80;78.90;;;;;;5070667;28;20032;-56
2023/09/06 01:43:57;;;;;;;4.25;2.20;;;22.80;79.00;;;;;;5054014;28;20075;-56
2023/09/06 01:46:23;;;;;;;3.38;2.45;;;22.80;79.00;;;;;;5070495;28;20086;-56
2023/09/06 01:48:48;;;;;;;2.90;2.63;;;22.80;79.00;;;;;;5086887;28;20044;-56
2023/09/06 01:51:15;;;;;;;4.32;2.17;;;22.70;79.00;;;;;;5053914;28;20536;-57
2023/09/06 01:53:44;;;;;;;3.85;2.40;;;22.80;79.00;;;;;;5088486;28;20048;-56
2023/09/06 01:56:09;;;;;;;2.95;2.30;;;22.70;79.10;;;;;;5069489;28;20044;-56
2023/09/06 01:58:37;;;;;;;3.97;2.45;;;22.70;79.10;;;;;;5069105;28;20473;-56
2023/09/06 02:01:04;;;;;;;3.40;2.58;;;22.60;79.00;;;;;;5086382;28;20488;-56
2023/09/06 02:03:29;;;;;;;3.13;2.40;;;22.60;79.00;;;;;;5088057;28;20043;-56
2023/09/06 02:05:55;;;;;;;2.58;2.00;;;22.60;79.00;;;;;;5053450;28;20397;-57
2023/09/06 02:08:21;;;;;;;4.00;2.65;;;22.60;79.00;;;;;;5068326;28;20043;-57
2023/09/06 02:10:47;;;;;;;6.45;2.50;;;22.60;79.10;;;;;;5069974;28;20044;-56
2023/09/06 02:13:12;;;;;;;3.03;2.38;;;22.60;79.10;;;;;;5085252;28;20035;-57
2023/09/06 02:15:38;;;;;;;3.10;2.25;;;22.50;79.00;;;;;;5053350;28;20404;-57
2023/09/06 02:18:04;;;;;;;7.53;2.47;;;22.60;79.10;;;;;;5069950;28;20047;-56
2023/09/06 02:20:30;;;;;;;5.85;2.60;;;22.50;79.00;;;;;;5069872;28;20036;-56
2023/09/06 02:22:56;;;;;;;2.90;2.60;;;22.50;79.00;;;;;;5068469;28;20029;-56
2023/09/06 02:25:23;;;;;;;6.03;2.58;;;22.50;79.10;;;;;;5068516;28;20060;-56
2023/09/06 02:27:49;;;;;;;3.22;2.60;;;22.50;79.10;;;;;;5070018;28;20040;-57
2023/09/06 02:30:14;;;;;;;3.17;2.58;;;22.50;79.10;;;;;;5065003;28;20043;-56
2023/09/06 02:32:40;;;;;;;3.35;2.30;;;22.50;79.10;;;;;;5067615;28;20040;-56
2023/09/06 02:35:06;;;;;;;4.03;2.55;;;22.50;79.10;;;;;;5067557;28;20083;-57
2023/09/06 02:37:32;;;;;;;3.10;2.38;;;22.40;79.10;;;;;;5032478;28;20025;-55
2023/09/06 02:39:58;;;;;;;3.38;2.67;;;22.40;79.10;;;;;;5049934;28;20048;-55
2023/09/06 02:42:23;;;;;;;4.65;2.80;;;22.40;79.10;;;;;;5049925;28;20393;-56
2023/09/06 02:44:50;;;;;;;3.47;2.28;;;22.40;79.80;;;;;;5067125;28;20043;-57
2023/09/06 02:47:17;;;;;;;4.80;2.67;;;22.30;79.00;;;;;;5080565;28;20043;-56
2023/09/06 02:49:43;;;;;;;2.88;2.38;;;22.30;79.10;;;;;;5068393;28;20068;-56
2023/09/06 02:52:30;;;;;;;2.67;2.17;;;22.30;79.10;;;;;;5047364;28;20048;-56
2023/09/06 02:54:57;;;;;;;3.42;2.30;;;22.30;79.20;;;;;;5066958;28;20108;-57
2023/09/06 02:57:23;;;;;;;3.83;2.47;;;22.20;79.30;;;;;;5049384;28;20038;-56
2023/09/06 02:59:51;;;;;;;5.40;2.78;;;22.30;79.30;;;;;;5050893;28;20389;-56
2023/09/06 03:02:18;;;;;;;3.85;2.45;;;22.20;79.30;;;;;;5086891;28;20550;-56
2023/09/06 03:04:43;;;;;;;6.35;2.53;;;22.20;79.20;;;;;;5067840;28;20134;-57
2023/09/06 03:07:09;;;;;;;5.65;2.67;;;22.20;79.20;;;;;;5068509;28;20056;-56
2023/09/06 03:09:35;;;;;;;3.95;2.50;;;22.20;79.20;;;;;;5050048;28;20036;-57
2023/09/06 03:12:11;;;;;;;3.85;2.75;;;22.10;79.30;;;;;;5068501;28;20032;-56
2023/09/06 03:14:47;;;;;;;5.55;2.70;;;22.10;79.30;;;;;;5070410;28;20102;-56
2023/09/06 03:17:22;;;;;;;3.85;2.65;;;22.10;79.30;;;;;;5053455;28;20048;-56
2023/09/06 03:19:53;;;;;;;3.60;2.40;;;22.10;79.30;;;;;;5068444;28;20029;-56
2023/09/06 03:22:22;;;;;;;3.75;2.72;;;22.00;79.30;;;;;;5086611;28;20339;-56
2023/09/06 03:24:52;;;;;;;3.63;2.58;;;22.00;79.30;;;;;;5069158;28;20033;-55
2023/09/06 03:27:20;;;;;;;3.38;2.55;;;22.00;79.30;;;;;;5069739;28;20039;-56
2023/09/06 03:29:50;;;;;;;3.70;2.65;;;22.00;79.30;;;;;;5051851;28;20037;-56
2023/09/06 03:32:17;;;;;;;2.90;2.60;;;22.00;79.30;;;;;;5086455;28;20037;-56
2023/09/06 03:34:45;;;;;;;3.85;2.40;;;22.00;79.50;;;;;;5068994;28;20052;-56
2023/09/06 03:37:11;;;;;;;3.17;2.50;;;21.90;79.40;;;;;;5067788;28;20099;-57
2023/09/06 03:39:43;;;;;;;4.95;2.72;;;21.90;79.40;;;;;;5068368;28;20127;-56
2023/09/06 03:42:09;;;;;;;3.67;2.70;;;21.90;79.40;;;;;;5045710;28;20404;-56
2023/09/06 03:44:38;;;;;;;5.32;2.50;;;21.90;79.40;;;;;;5046373;28;20033;-56
2023/09/06 03:47:05;;;;;;;3.60;2.70;;;21.90;79.40;;;;;;5045961;28;20114;-56
2023/09/06 03:49:32;;;;;;;5.07;2.45;;;21.80;79.40;;;;;;5031438;28;20049;-56
2023/09/06 03:51:58;;;;;;;3.05;2.70;;;21.80;79.50;;;;;;5030293;28;20128;-56
2023/09/06 03:54:24;;;;;;;5.20;2.70;;;21.80;79.50;;;;;;5065944;28;20033;-56
2023/09/06 03:56:50;;;;;;;4.05;2.50;;;21.80;79.50;;;;;;5047872;28;20036;-56
2023/09/06 03:59:16;;;;;;;3.03;2.42;;;21.80;79.60;;;;;;5047394;28;20044;-56
2023/09/06 04:01:43;;;;;;;3.97;2.70;;;21.70;79.60;;;;;;5065935;28;20485;-56
2023/09/06 04:04:09;;;;;;;2.92;2.50;;;21.70;79.60;;;;;;5048294;28;20041;-56
2023/09/06 04:06:35;;;;;;;3.80;2.70;;;21.70;79.70;;;;;;5048217;28;20077;-56
2023/09/06 04:09:01;;;;;;;5.63;2.30;;;21.70;79.60;;;;;;5031481;28;20382;-56
2023/09/06 04:11:26;;;;;;;2.72;2.45;;;21.70;79.70;;;;;;5048255;28;20068;-56
2023/09/06 04:13:52;;;;;;;3.22;2.42;;;21.70;79.60;;;;;;5048391;28;20523;-56
2023/09/06 04:16:18;;;;;;;3.95;2.78;;;21.70;79.50;;;;;;5048168;28;20454;-56
2023/09/06 04:18:43;;;;;;;4.20;2.50;;;21.60;79.50;;;;;;5066000;28;20060;-56
2023/09/06 04:21:09;;;;;;;3.45;2.40;;;21.60;79.50;;;;;;5048040;28;20041;-56
2023/09/06 04:23:39;;;;;;;6.40;3.50;;;21.60;80.20;;;;;;5047601;28;20116;-56
2023/09/06 04:26:05;;;;;;;7.22;3.58;;;21.60;79.60;;;;;;5065853;28;20095;-56
2023/09/06 04:28:30;;;;;;;7.63;3.85;;;21.60;79.70;;;;;;5047989;28;20033;-56
2023/09/06 04:30:57;;;;;;;13.75;4.28;;;21.60;79.80;;;;;;5065873;28;20042;-56
2023/09/06 04:33:24;;;;;;;14.27;5.60;;;21.50;79.80;;;;;;5065518;28;20033;-56
2023/09/06 04:35:49;;;;;;;24.33;6.10;;;21.50;79.80;;;;;;5076780;28;20063;-56
2023/09/06 04:38:16;;;;;;;31.38;6.43;;;21.50;79.80;;;;;;5053191;28;20485;-56
2023/09/06 04:40:45;;;;;;;42.85;7.43;;;21.50;79.80;;;;;;5066853;28;20044;-56
2023/09/06 04:43:11;;;;;;;30.98;6.65;;;21.50;79.80;;;;;;5050851;28;20037;-56
2023/09/06 04:45:39;;;;;;;38.47;7.38;;;21.50;79.80;;;;;;5067543;28;20096;-56
2023/09/06 04:48:08;;;;;;;37.47;7.25;;;21.50;79.80;;;;;;5085006;28;20060;-57
2023/09/06 04:50:39;;;;;;;47.45;8.00;;;21.40;80.00;;;;;;5068202;28;20096;-56
2023/09/06 04:53:05;;;;;;;35.35;7.22;;;21.40;80.00;;;;;;5084334;28;20028;-56
2023/09/06 04:55:35;;;;;;;39.45;7.82;;;21.40;80.10;;;;;;5084454;28;20024;-56
2023/09/06 04:58:04;;;;;;;34.22;7.68;;;21.40;80.10;;;;;;5067577;28;20036;-56
2023/09/06 05:00:35;;;;;;;27.33;6.80;;;21.40;80.10;;;;;;5067703;28;20040;-56
2023/09/06 05:03:00;;;;;;;24.98;6.80;;;21.40;80.10;;;;;;5084360;28;20044;-56
2023/09/06 05:05:26;;;;;;;36.17;7.22;;;21.40;80.10;;;;;;5085414;28;20029;-56
2023/09/06 05:07:51;;;;;;;21.55;6.38;;;21.40;80.10;;;;;;5086037;28;20453;-56
2023/09/06 05:10:17;;;;;;;38.08;7.30;;;21.40;80.10;;;;;;5087812;28;20037;-56
2023/09/06 05:12:43;;;;;;;33.15;7.20;;;21.30;80.10;;;;;;5087739;28;20043;-56
2023/09/06 05:15:08;;;;;;;30.27;6.60;;;21.30;80.20;;;;;;5087599;28;20386;-56
2023/09/06 05:17:34;;;;;;;30.67;7.30;;;21.30;80.20;;;;;;5070909;28;20038;-56
2023/09/06 05:20:23;;;;;;;34.95;7.93;;;21.30;80.30;;;;;;5071055;28;20044;-56
2023/09/06 05:22:49;;;;;;;35.20;7.35;;;21.30;80.30;;;;;;5087633;28;20040;-56
2023/09/06 05:25:14;;;;;;;31.27;7.70;;;21.20;80.30;;;;;;5088802;28;20162;-56
2023/09/06 05:27:40;;;;;;;35.17;8.07;;;21.20;80.30;;;;;;5088838;28;20039;-56
2023/09/06 05:30:06;;;;;;;41.15;7.97;;;21.20;80.30;;;;;;5087457;28;20036;-56
2023/09/06 05:32:33;;;;;;;28.80;7.00;;;21.20;80.20;;;;;;5070638;28;20416;-57
2023/09/06 05:34:58;;;;;;;28.05;6.57;;;21.20;80.30;;;;;;5069133;28;20020;-56
2023/09/06 05:37:25;;;;;;;22.02;6.88;;;21.20;80.30;;;;;;5103528;28;20123;-56
2023/09/06 05:39:50;;;;;;;20.10;6.82;;;21.20;80.40;;;;;;5070388;28;20354;-56
2023/09/06 05:42:16;;;;;;;23.98;7.07;;;21.20;80.70;;;;;;5070241;28;20037;-56
2023/09/06 05:44:42;;;;;;;31.65;7.10;;;21.20;80.80;;;;;;5053518;28;20044;-56
2023/09/06 05:47:08;;;;;;;31.48;7.50;;;21.10;80.80;;;;;;5069933;28;20040;-56
2023/09/06 05:49:35;;;;;;;26.20;6.78;;;21.10;80.80;;;;;;5053535;28;20037;-57
2023/09/06 05:52:01;;;;;;;30.38;6.68;;;21.10;80.80;;;;;;5069864;28;20533;-56
2023/09/06 05:54:27;;;;;;;29.08;6.45;;;21.10;80.70;;;;;;5070100;28;20041;-57
2023/09/06 05:56:53;;;;;;;24.50;7.32;;;21.10;80.70;;;;;;5070982;28;20128;-56
2023/09/06 05:59:19;;;;;;;19.98;6.78;;;21.10;80.70;;;;;;5049931;28;20385;-56
2023/09/06 06:01:45;;;;;;;39.38;7.72;;;21.10;80.80;;;;;;5049535;28;20033;-56
2023/09/06 06:04:11;;;;;;;36.58;7.18;;;21.10;80.90;;;;;;5054023;28;20040;-57
2023/09/06 06:06:37;;;;;;;43.88;9.27;;;21.10;81.00;;;;;;5087559;28;20040;-56
2023/09/06 06:09:04;;;;;;;46.20;10.13;;;21.10;81.20;;;;;;5049236;28;20449;-56
2023/09/06 06:11:29;;;;;;;39.40;9.80;;;21.00;81.30;;;;;;5068295;28;20032;-56
2023/09/06 06:13:55;;;;;;;49.30;9.15;;;21.00;81.20;;;;;;5076990;28;20103;-56
2023/09/06 06:16:21;;;;;;;32.83;9.15;;;21.00;81.20;;;;;;5078077;28;20392;-56
2023/09/06 06:18:48;;;;;;;32.35;9.55;;;21.00;81.20;;;;;;5075937;28;20044;-56
2023/09/06 06:21:13;;;;;;;36.30;10.30;;;21.00;81.20;;;;;;5054624;28;20472;-56
2023/09/06 06:23:43;;;;;;;38.75;10.07;;;20.90;81.20;;;;;;5038024;28;20043;-56
2023/09/06 06:26:09;;;;;;;40.03;10.20;;;20.90;81.20;;;;;;5047295;28;20029;-55
2023/09/06 06:28:34;;;;;;;27.55;9.05;;;20.90;81.10;;;;;;5065165;28;20041;-56
2023/09/06 06:31:00;;;;;;;38.72;10.45;;;20.90;81.10;;;;;;5053541;28;20086;-56
2023/09/06 06:33:26;;;;;;;27.85;9.15;;;20.90;81.10;;;;;;5048875;28;20044;-56
2023/09/06 06:35:51;;;;;;;27.90;9.00;;;20.90;81.10;;;;;;5066592;28;20484;-56
2023/09/06 06:38:17;;;;;;;28.13;8.57;;;20.90;81.10;;;;;;5066310;28;20048;-56
2023/09/06 06:40:42;;;;;;;33.65;9.35;;;20.90;81.10;;;;;;5081813;28;20060;-56
2023/09/06 06:43:08;;;;;;;24.67;8.43;;;20.90;81.20;;;;;;5068367;28;20056;-56
2023/09/06 06:45:33;;;;;;;34.03;9.05;;;20.80;81.20;;;;;;5048178;28;20029;-57
2023/09/06 06:47:59;;;;;;;31.98;9.40;;;20.80;81.20;;;;;;5050389;28;20400;-56
2023/09/06 06:50:24;;;;;;;32.28;8.73;;;20.80;81.10;;;;;;5084666;28;20368;-56
2023/09/06 06:52:50;;;;;;;57.08;10.68;;;20.80;81.10;;;;;;5061598;28;20041;-56
2023/09/06 06:55:15;;;;;;;32.42;8.30;;;20.80;81.40;;;;;;5044949;28;20033;-56
2023/09/06 06:57:42;;;;;;;37.78;8.48;;;20.80;81.30;;;;;;5081028;28;20044;-56
2023/09/06 07:00:11;;;;;;;28.10;8.48;;;20.80;81.30;;;;;;5083733;28;20021;-56
2023/09/06 07:02:37;;;;;;;58.70;10.55;;;20.80;81.40;;;;;;5067179;28;20098;-56
2023/09/06 07:05:03;;;;;;;38.25;8.80;;;20.80;81.60;;;;;;5051617;28;20029;-56
2023/09/06 07:07:29;;;;;;;133.40;14.82;;;20.80;81.40;;;;;;5078022;28;20039;-56
2023/09/06 07:09:54;;;;;;;134.23;16.70;;;20.80;81.50;;;;;;5083689;28;20063;-57
2023/09/06 07:12:20;;;;;;;63.97;11.40;;;20.80;81.60;;;;;;5063214;28;20085;-56
2023/09/06 07:14:45;;;;;;;70.88;11.48;;;20.80;81.60;;;;;;5084883;28;20464;-56
2023/09/06 07:17:11;;;;;;;92.80;13.80;;;20.80;82.00;;;;;;5052066;28;20033;-56
2023/09/06 07:19:36;;;;;;;90.50;13.88;;;20.80;82.10;;;;;;5071078;28;20037;-56
2023/09/06 07:22:03;;;;;;;61.28;10.57;;;20.90;82.10;;;;;;5072427;28;20124;-56
2023/09/06 07:24:28;;;;;;;61.53;10.77;;;20.90;82.10;;;;;;5065573;28;20060;-57
2023/09/06 07:26:54;;;;;;;60.65;10.27;;;20.90;82.00;;;;;;5058636;28;20079;-56
2023/09/06 07:29:19;;;;;;;51.88;10.75;;;20.90;82.10;;;;;;5072664;28;20063;-56
2023/09/06 07:31:45;;;;;;;69.78;11.77;;;20.90;82.20;;;;;;5079348;28;20041;-57
2023/09/06 07:34:11;;;;;;;96.13;13.20;;;20.90;82.40;;;;;;5055055;28;20044;-56
2023/09/06 07:36:36;;;;;;;82.05;14.50;;;20.90;82.70;;;;;;5065952;28;20033;-56
2023/09/06 07:39:02;;;;;;;83.85;14.98;;;20.90;82.90;;;;;;5070881;28;20099;-56
2023/09/06 07:41:28;;;;;;;87.15;14.00;;;20.90;83.20;;;;;;5059347;28;20040;-56
2023/09/06 07:43:53;;;;;;;89.13;14.05;;;20.90;83.30;;;;;;5044110;28;20037;-56
2023/09/06 07:46:19;;;;;;;80.35;14.30;;;20.90;83.30;;;;;;5065728;28;20564;-56
2023/09/06 07:48:45;;;;;;;101.75;14.52;;;20.90;83.20;;;;;;5052930;28;20052;-57
2023/09/06 07:51:12;;;;;;;71.18;13.52;;;20.90;83.20;;;;;;5055553;28;20048;-57
2023/09/06 07:53:37;;;;;;;86.47;12.52;;;20.90;83.20;;;;;;5073065;28;20033;-56
2023/09/06 07:56:05;;;;;;;80.93;13.98;;;20.90;83.90;;;;;;5065632;28;20033;-56
2023/09/06 07:58:31;;;;;;;81.82;15.20;;;20.90;83.10;;;;;;5053782;28;20088;-56
2023/09/06 08:00:57;;;;;;;85.20;14.98;;;20.90;83.10;;;;;;5047785;28;20036;-56
2023/09/06 08:03:23;;;;;;;95.85;14.65;;;20.90;83.30;;;;;;5057185;28;20037;-57
2023/09/06 08:05:48;;;;;;;98.72;15.77;;;20.90;83.60;;;;;;5050949;28;20067;-56
2023/09/06 08:08:14;;;;;;;108.95;15.30;;;21.00;83.90;;;;;;5054663;28;20084;-57
2023/09/06 08:10:39;;;;;;;95.97;15.27;;;20.90;84.10;;;;;;5040495;28;20029;-52
2023/09/06 08:13:05;;;;;;;79.18;14.65;;;20.90;84.40;;;;;;5052662;28;20037;-53
2023/09/06 08:15:37;;;;;;;80.35;14.77;;;20.90;84.50;;;;;;5049778;28;20025;-52
2023/09/06 08:18:04;;;;;;;97.57;14.55;;;20.90;84.90;;;;;;5071672;28;20046;-53
2023/09/06 08:20:31;;;;;;;100.30;14.43;;;20.90;84.60;;;;;;5067074;28;20058;-53
2023/09/06 08:22:56;;;;;;;129.85;17.48;;;20.90;84.40;;;;;;5077076;28;20057;-53
2023/09/06 08:25:22;;;;;;;98.13;16.30;;;21.00;84.50;;;;;;5061370;28;20063;-53
2023/09/06 08:27:50;;;;;;;107.65;16.10;;;21.00;84.40;;;;;;5079362;28;20097;-53
2023/09/06 08:30:16;;;;;;;84.63;14.75;;;21.00;84.30;;;;;;5060676;28;20067;-53
2023/09/06 08:32:43;;;;;;;92.82;15.27;;;21.00;84.20;;;;;;5056413;28;20064;-52
2023/09/06 08:35:11;;;;;;;82.93;14.80;;;21.10;84.30;;;;;;5082624;28;20036;-53
2023/09/06 08:37:37;;;;;;;91.78;15.80;;;21.10;84.40;;;;;;5060051;28;20040;-52
2023/09/06 08:40:06;;;;;;;121.78;16.25;;;21.10;84.30;;;;;;5058135;28;20079;-52
2023/09/06 08:42:35;;;;;;;134.38;20.35;;;21.10;85.00;;;;;;5061671;28;20493;-53
2023/09/06 08:45:02;;;;;;;124.10;19.90;;;21.10;85.20;;;;;;5029696;28;20096;-52
2023/09/06 08:47:28;;;;;;;94.00;15.52;;;21.20;84.50;;;;;;5078503;28;20051;-53
2023/09/06 08:49:53;;;;;;;123.57;21.25;;;21.20;84.40;;;;;;5083657;28;20025;-53
2023/09/06 08:52:19;;;;;;;133.30;19.98;;;21.20;84.70;;;;;;5059008;28;20044;-53
2023/09/06 08:54:45;;;;;;;163.15;23.75;;;21.20;84.80;;;;;;5057416;28;20120;-53
2023/09/06 08:57:11;;;;;;;161.23;21.02;;;21.20;86.00;;;;;;5043314;28;20116;-53
2023/09/06 08:59:37;;;;;;;111.32;18.70;;;21.30;86.30;;;;;;5076418;28;20025;-53
2023/09/06 09:02:04;;;;;;;122.35;19.42;;;21.30;86.50;;;;;;5043529;28;20052;-52
2023/09/06 09:04:29;;;;;;;120.97;18.27;;;21.30;86.40;;;;;;5077955;28;20040;-52
2023/09/06 09:06:55;;;;;;;99.22;17.00;;;21.30;86.10;;;;;;5083695;28;20096;-53
2023/09/06 09:09:20;;;;;;;83.03;15.52;;;21.30;87.30;;;;;;5046885;28;20036;-52
2023/09/06 09:11:50;;;;;;;76.90;13.70;;;21.30;87.70;;;;;;5074579;28;20289;-53
2023/09/06 09:14:23;;;;;;;94.30;15.10;;;21.30;88.00;;;;;;5065816;28;20464;-53
2023/09/06 09:16:53;;;;;;;100.28;16.65;;;21.30;87.70;;;;;;5055317;28;20144;-52
2023/09/06 09:19:20;;;;;;;126.03;17.23;;;21.30;88.00;;;;;;5077854;28;20071;-53
2023/09/06 09:21:46;;;;;;;114.57;18.10;;;21.30;88.20;;;;;;5046720;28;20084;-53
2023/09/06 09:24:12;;;;;;;69.85;13.68;;;21.40;88.30;;;;;;5057213;28;20087;-53
2023/09/06 09:26:41;;;;;;;74.22;13.63;;;21.40;88.90;;;;;;5067404;28;20093;-52
2023/09/06 09:29:11;;;;;;;80.70;13.90;;;21.40;88.40;;;;;;5067068;28;20044;-52
2023/09/06 09:31:37;;;;;;;81.78;13.15;;;21.40;88.60;;;;;;5053637;28;20029;-52
2023/09/06 09:34:02;;;;;;;71.82;10.82;;;21.50;88.60;;;;;;5085736;28;20047;-52
2023/09/06 09:36:34;;;;;;;64.72;11.25;;;21.50;88.80;;;;;;5069156;28;20028;-53
2023/09/06 09:39:05;;;;;;;101.20;16.02;;;21.50;88.90;;;;;;5083689;28;20036;-52
2023/09/06 09:41:31;;;;;;;58.08;11.50;;;21.50;88.90;;;;;;5050020;28;20025;-53
2023/09/06 09:44:19;;;;;;;63.13;11.43;;;21.60;89.10;;;;;;5072722;28;20048;-52
2023/09/06 09:46:45;;;;;;;59.75;12.35;;;21.60;89.10;;;;;;5060848;28;20036;-53
2023/09/06 09:49:11;;;;;;;59.67;10.73;;;21.60;89.20;;;;;;5066608;28;20516;-53
2023/09/06 09:51:38;;;;;;;65.88;12.15;;;21.70;89.30;;;;;;5078322;28;20044;-53
2023/09/06 09:54:04;;;;;;;51.03;10.43;;;21.70;89.30;;;;;;5045347;28;20087;-53
2023/09/06 09:56:30;;;;;;;67.60;11.98;;;21.70;89.30;;;;;;5067664;28;20029;-52
2023/09/06 09:58:56;;;;;;;60.85;11.82;;;21.70;89.30;;;;;;5064234;28;20119;-53
2023/09/06 10:01:22;;;;;;;55.00;12.60;;;21.70;89.40;;;;;;5061962;28;20071;-53
2023/09/06 10:03:49;;;;;;;59.03;11.85;;;21.80;89.40;;;;;;5081362;28;20535;-52
2023/09/06 10:06:14;;;;;;;66.72;11.75;;;21.80;89.60;;;;;;5065456;28;20052;-53
2023/09/06 10:08:40;;;;;;;59.88;10.30;;;21.80;89.80;;;;;;5044148;28;20095;-53
2023/09/06 10:11:06;;;;;;;61.90;10.73;;;21.90;89.60;;;;;;5048057;28;20036;-53
2023/09/06 10:13:32;;;;;;;47.55;9.68;;;22.00;89.50;;;;;;5062822;28;20523;-53
2023/09/06 10:15:58;;;;;;;55.28;11.38;;;22.00;89.80;;;;;;5067979;28;20036;-52
2023/09/06 10:18:23;;;;;;;67.07;10.57;;;22.00;89.50;;;;;;5063048;28;20047;-53
2023/09/06 10:20:49;;;;;;;60.90;10.40;;;22.10;89.00;;;;;;5063262;28;20076;-52
2023/09/06 10:23:14;;;;;;;62.22;10.88;;;22.00;89.30;;;;;;5070184;28;20045;-53
2023/09/06 10:25:41;;;;;;;72.65;11.23;;;22.10;89.90;;;;;;5059689;28;20142;-53
2023/09/06 10:28:07;;;;;;;61.25;11.35;;;22.10;90.00;;;;;;5074822;28;20037;-53
2023/09/06 10:30:34;;;;;;;44.20;10.23;;;22.10;89.90;;;;;;5057150;28;20028;-53
2023/09/06 10:33:01;;;;;;;73.30;12.73;;;22.20;89.70;;;;;;5079688;28;20044;-53
2023/09/06 10:35:30;;;;;;;69.10;11.95;;;22.20;90.00;;;;;;5059247;28;20033;-53
2023/09/06 10:38:14;;;;;;;62.03;11.30;;;22.20;89.60;;;;;;5051647;28;20043;-53
2023/09/06 10:40:51;;;;;;;42.92;10.50;;;22.30;90.00;;;;;;5067029;28;20072;-53
2023/09/06 10:43:24;;;;;;;60.72;11.30;;;22.30;90.10;;;;;;5079053;28;20508;-53
2023/09/06 10:45:56;;;;;;;44.63;9.50;;;22.30;89.70;;;;;;5076907;28;20032;-53
2023/09/06 10:48:22;;;;;;;53.75;10.40;;;22.40;90.00;;;;;;5057606;28;20060;-53
2023/09/06 10:51:07;;;;;;;48.72;10.40;;;22.40;89.70;;;;;;5063965;28;20032;-53
2023/09/06 10:53:34;;;;;;;59.03;11.32;;;22.40;90.00;;;;;;5064748;28;20112;-52
2023/09/06 10:56:01;;;;;;;70.10;12.05;;;22.50;90.00;;;;;;5043988;28;20046;-53
2023/09/06 10:58:31;;;;;;;109.63;16.38;;;22.50;90.00;;;;;;5059889;28;20037;-52
2023/09/06 11:01:18;;;;;;;81.43;12.25;;;22.60;89.90;;;;;;5063742;28;20124;-53
2023/09/06 11:03:53;;;;;;;57.78;12.15;;;22.70;89.60;;;;;;5076985;28;20460;-53
2023/09/06 11:06:19;;;;;;;67.28;11.73;;;22.70;89.20;;;;;;5058265;28;20033;-53
2023/09/06 11:08:46;;;;;;;97.30;13.90;;;22.80;89.40;;;;;;5065993;28;20039;-53
2023/09/06 11:11:13;;;;;;;66.78;12.13;;;22.80;89.50;;;;;;5045213;28;20056;-53
2023/09/06 11:13:40;;;;;;;61.55;12.43;;;22.90;89.50;;;;;;5063182;28;20036;-53
2023/09/06 11:16:13;;;;;;;61.97;12.15;;;22.90;89.30;;;;;;5044794;28;20401;-52
2023/09/06 11:18:45;;;;;;;64.53;11.43;;;23.00;89.00;;;;;;5077031;28;20033;-53
2023/09/06 11:21:16;;;;;;;67.78;11.73;;;23.10;88.90;;;;;;5048825;28;20040;-51
2023/09/06 11:23:45;;;;;;;50.55;9.80;;;23.10;88.90;;;;;;5078334;28;20087;-52
2023/09/06 11:26:11;;;;;;;55.78;11.32;;;23.20;88.80;;;;;;5084007;28;20062;-53
2023/09/06 11:28:38;;;;;;;54.78;11.85;;;23.20;89.10;;;;;;5054873;28;20041;-53
2023/09/06 11:31:05;;;;;;;63.83;11.50;;;23.20;89.30;;;;;;5058524;28;20104;-53
2023/09/06 11:33:31;;;;;;;68.80;12.30;;;23.30;88.40;;;;;;5058660;28;20056;-53
2023/09/06 11:35:58;;;;;;;73.05;12.70;;;23.40;88.20;;;;;;5038241;28;20033;-53
2023/09/06 11:38:28;;;;;;;77.28;12.93;;;23.40;88.10;;;;;;5025881;28;20071;-52
2023/09/06 11:40:55;;;;;;;57.97;12.90;;;23.50;88.00;;;;;;5060316;28;20024;-53
2023/09/06 11:43:23;;;;;;;62.13;12.32;;;23.60;87.80;;;;;;5046535;28;20067;-53
2023/09/06 11:45:53;;;;;;;73.68;13.30;;;23.60;87.80;;;;;;5074788;28;20028;-52
2023/09/06 11:48:27;;;;;;;70.47;12.68;;;23.70;87.60;;;;;;5047973;28;20109;-53
2023/09/06 11:51:01;;;;;;;88.95;13.48;;;23.80;87.50;;;;;;5020059;28;20068;-53
2023/09/06 11:53:27;;;;;;;58.92;11.60;;;23.90;87.30;;;;;;5054237;28;20041;-53
2023/09/06 11:55:54;;;;;;;71.18;13.70;;;23.90;86.90;;;;;;5041792;28;20087;-53
2023/09/06 11:58:21;;;;;;;65.25;12.30;;;24.00;86.70;;;;;;5054826;28;20323;-53
2023/09/06 12:00:48;;;;;;;63.60;11.38;;;24.10;86.30;;;;;;5054547;28;20074;-53
2023/09/06 12:03:35;;;;;;;73.75;11.10;;;24.20;86.00;;;;;;5044087;28;20076;-52
2023/09/06 12:06:02;;;;;;;62.65;11.85;;;24.20;85.90;;;;;;5063360;28;20056;-53
2023/09/06 12:08:31;;;;;;;54.40;11.02;;;24.30;85.90;;;;;;5053976;28;20039;-53
2023/09/06 12:11:08;;;;;;;51.30;10.52;;;24.30;85.90;;;;;;5055372;28;20120;-53
2023/09/06 12:13:35;;;;;;;46.33;9.85;;;24.40;86.00;;;;;;5044978;28;20036;-52
2023/09/06 12:16:00;;;;;;;47.13;9.85;;;24.50;85.90;;;;;;5041414;28;20047;-52
2023/09/06 12:18:28;;;;;;;47.25;9.80;;;24.50;85.70;;;;;;5057517;28;20033;-53
2023/09/06 12:20:54;;;;;;;49.10;10.35;;;24.60;85.70;;;;;;5065850;28;20044;-53
2023/09/06 12:23:23;;;;;;;70.15;12.25;;;24.60;85.60;;;;;;5058701;28;20063;-53
2023/09/06 12:25:48;;;;;;;66.20;12.98;;;24.70;85.60;;;;;;5062564;28;20044;-53
2023/09/06 12:28:14;;;;;;;66.85;11.07;;;24.80;85.70;;;;;;5053500;28;20449;-52
2023/09/06 12:30:39;;;;;;;59.35;11.60;;;24.80;85.70;;;;;;5075121;28;20097;-53
2023/09/06 12:33:05;;;;;;;67.10;12.50;;;24.80;85.60;;;;;;5058144;28;20048;-53
2023/09/06 12:35:38;;;;;;;75.53;12.90;;;24.90;85.50;;;;;;5060530;28;20032;-53